aviador You're here:

CYOW Decoded Metar

OTTAWA in ON, CANADA
Report Time2018-05-27 01:00:00
UTC Time2018-05-27 01:15:47
Flight Rules vfr VFR
Wind080° at 07 kt
W.Decomp.*RWY 07: 6.4 kt HW 2.8 kt RCW
RWY 14: 4.9 kt HW 5 kt LCW
RWY 04: 4.1 kt HW 5.7 kt RCW
W.Rank080° ranks 12
Current wind is below 080° avg. (8.3)
Visibility9999 m
Phenomena:N/A
Clouds:Broken 060 Hf
Broken 100 Hf
Broken 250 Hf
Expected CloudBase > 800 ft AGL from Temp-Dew spread
Ceiling6,000 ft
Temp19°C (ISA +5)
Dew Point17°C (88% RH)
AAT18.8°C
QNH1013 hPa
Density Alt1,188 ft
Elevation374 ft
Report Wrong Elevation
Raw Report
CYOW 270100Z 08007KT 10SM BKN060 BKN100 BKN250 19/17 A2991 RMK
SC5AC1CI1 SLP132 DENSITY ALT 1000FT=

Extra information for CYOW:More info

Metar Taf Metar & Taf Last 4 Metars F.Rules Stats Wind Profile Meteogram Temp Stats Airport Information Weather charts Add Link Nearby VenuesMetar ALERT Operation Metar Decoded Social comments